Goutum, Netherlands
Current Conditions -  °F | °C
As of 12:55 AM on Wednesday 26 Nov 2014 (Local Time) from EHLW Reporting Station
Haze Haze  
Wind Chill: 34°   Ceiling: 600
Heat Index: 41°   Visibility: 2.7mi
Dew Point: 41°   Wind: 13mph
Humidity: 100%   Direction: 100°E
Pressure: 30.18"   Gusts: NA
Location:  53.18°N, 5.8°E
Report Text: EHLW 252355Z AUTO 10011KT 4400 BR BKN006 OVC007 05/05 Q1022 YLO
Loading
Personal Weather Stations






























Interactive Weather Map New forecast layout! Learn more

10-Day Weather Forecast

Advertisements
Track Severe Weather on mobile